Terminal Aerodrome Forecast
Issued by NWS

Home | Current Version | Previous Version | Text Only | Print | Product List | Glossary On
Versions: 1 2 3 4 5 6 7 8 9 10 11 12 13 14 15 16 17 18 19 20
572
FTPA31 PHFO 271339 AAA
TAFHTO
TAF AMD
PHTO 271339Z 2714/2812 23005KT 6SM -SHRA SCT025 OVC040
      TEMPO 2714/2718 4SM SHRA BR BKN025
     FM272000 08007KT P6SM VCSH SCT025 BKN040
     FM280500 23005KT P6SM VCSH SCT025 BKN035 OVC045=

USA.gov is the U.S. government's official web portal to all federal, state and local government web resources and services.